Pagina principale
METAR-TAF:

METAR-TAF

Aeroporti :

Colmar, Francia

latitudine: 48-06-37N, longitudine: 7-21-33E, altezza: 191 m

Osservazione

Il bollettino è stato emesso 21 minuti fa, alle 08:30 UTC
Vento 5 kt da nord/nord-est, variando fra nord/nord-ovest e est/nord-est
Temperature 23°C
Umidità 61%
Pressione 1021 hPa
Visibilità 10 km o più
nessuna nube inferiore a 1500 m e nessun cumulonembo

METAR: LFGA 180830Z AUTO 02005KT 340V060 CAVOK 23/15 Q1021

Ora: 10:51 (08:51 UTC)


TAF: mancante

Osservazioni e previsioni meteorologiche di più di 4000 aeroporti (messaggi METAR e TAF).

Le stazioni disponibili sono rappresentate dai dischi gialli e rossi sulla carta.

Puntare il mouse per vedere il nome della stazione.

Clicca sopra per visualizzare le osservazioni e previsioni meteorologiche.

Per cambiare la mappa : fare clic sui pulsanti verdi con una croce nera per ingrandire, il pulsante verde con un trattino per diminuire, o sulla freccia verde per le mappe adiacenti.


METAR-TAF: